Flight Track Log - Related Links

Times and Time Zones

All times are in EDT time to prevent confusion due to time zone crossing. See the ASQ5740 flight status page for this flight to view local times or setup timezone preferences in your user account.

Time Position Orientation Groundspeed Altitude Reporting Facility
EDT Latitude Longitude Course Direction KTS MPH feet Rate Location/Type
Thu 01:16:03 PM 38.9333 -77.5500 230° Southwest 238 274 1,900  Level Potomac TRACON
Thu 01:17:03 PM 38.8667 -77.6167 218° Southwest 273 314 5,300 2,429 Climbing Potomac TRACON
Thu 01:18:00 PM 38.6382 -77.8502 226° Southwest  Level Estimated
Thu 01:18:09 PM 38.7833 -77.6500 197° South 300 345 7,000  Level Potomac TRACON
Thu 01:19:00 PM 38.5607 -77.9472 226° Southwest  Level Estimated
Thu 01:19:09 PM 38.7000 -77.6333 171° South 294 338 8,500  Level Potomac TRACON
Thu 01:20:00 PM 38.4832 -78.0440 233° Southwest  Level Estimated
Thu 01:20:29 PM 38.6067 -77.6108 169° South 297 342 10,700  Level Washington Center
Thu 01:21:00 PM 38.4055 -78.1406 230° Southwest  Level Estimated
Thu 01:21:27 PM 38.5222 -77.6694 209° Southwest 303 349 11,800  Level Washington Center
Thu 01:22:27 PM 38.4394 -77.7494 217° Southwest 332 382 13,700 1,770 Climbing Washington Center
Thu 01:23:29 PM 38.3589 -77.8292 218° Southwest 358 412 15,400 1,600 Climbing Washington Center
Thu 01:24:27 PM 38.2717 -77.9111 216° Southwest 380 437 16,900 1,475 Climbing Washington Center
Thu 01:25:27 PM 38.1847 -77.9931 217° Southwest 380 437 18,300 1,450 Climbing Washington Center
Thu 01:26:27 PM 38.0975 -78.0747 216° Southwest 391 450 19,800 1,438 Climbing Washington Center
Thu 01:27:28 PM 38.0144 -78.1564 218° Southwest 391 450 21,200 1,279 Climbing Washington Center
Thu 01:28:29 PM 37.9369 -78.2694 229° Southwest 383 441 22,400 1,059 Climbing Washington Center
Thu 01:29:27 PM 37.8636 -78.3747 229° Southwest 395 455 23,300 814 Climbing Washington Center
Thu 01:30:27 PM 37.7903 -78.4797 229° Southwest 402 463 24,000 694 Climbing Washington Center
Thu 01:31:28 PM 37.7125 -78.5897 228° Southwest 402 463 24,700 639 Climbing Washington Center
Thu 01:32:29 PM 37.6411 -78.6892 228° Southwest 415 478 25,300 655 Climbing Washington Center
Thu 01:33:27 PM 37.5653 -78.7986 229° Southwest 426 490 26,000 353 Climbing Washington Center
Thu 01:34:28 PM 37.4828 -78.9156 228° Southwest 432 497 26,000  Level Washington Center
Thu 01:35:29 PM 37.3981 -79.0347 228° Southwest 442 509 26,000  Level Washington Center
Thu 01:36:27 PM 37.3133 -79.1511 228° Southwest 454 522 26,000  Level Washington Center
Thu 01:37:27 PM 37.2217 -79.2825 229° Southwest 454 522 26,000  Level Washington Center
Thu 01:38:27 PM 37.1408 -79.4011 229° Southwest 454 522 26,000  Level Washington Center
Thu 01:39:28 PM 37.0594 -79.5244 230° Southwest 454 522 26,000  Level Washington Center
Thu 01:40:28 PM 36.9764 -79.6450 229° Southwest 454 522 26,000  Level Washington Center
Thu 01:42:31 PM 36.8156 -79.8772 229° Southwest 446 513 26,000  Level Atlanta Center
Thu 01:43:31 PM 36.7242 -80.0114 230° Southwest 456 525 26,000  Level Atlanta Center
Thu 01:44:31 PM 36.6425 -80.1294 229° Southwest 456 525 26,000  Level Atlanta Center
Thu 01:45:31 PM 36.5608 -80.2472 229° Southwest 450 518 26,000 -450 Level Atlanta Center
Thu 01:46:31 PM 36.4439 -80.3147 205° Southwest 456 525 25,100 -900 Descending Atlanta Center
Thu 01:47:31 PM 36.3242 -80.3536 195° South 476 548 24,200 -950 Descending Atlanta Center
Thu 01:48:31 PM 36.1919 -80.3983 195° South 482 555 23,200 -1,000 Descending Atlanta Center
Thu 01:49:31 PM 36.0619 -80.4453 196° South 487 560 22,200 -1,050 Descending Atlanta Center
Thu 01:50:31 PM 35.9236 -80.4925 195° South 487 560 21,100 -1,100 Descending Atlanta Center
Thu 01:51:31 PM 35.7997 -80.5361 196° South 482 555 20,000 -722 Descending Atlanta Center
Thu 01:52:19 PM 35.7267 -80.6083 219° Southwest 444 511 19,800 -300 Descending Atlanta Center
Thu 01:52:31 PM 35.7125 -80.6244 223° Southwest 445 512 19,700 -917 Descending Atlanta Center
Thu 01:53:31 PM 35.6492 -80.7497 238° Southwest 436 502 18,700 -1,034 Descending Atlanta Center
Thu 01:54:27 PM 35.5836 -80.8800 238° Southwest 437 503 17,700 -1,000 Descending Atlanta Center
Thu 01:54:31 PM 35.5836 -80.8775 90° East 442 509 17,700 -1,500 Level Atlanta Center
Thu 01:55:31 PM 35.5219 -80.9972 238° Southwest 435 501 16,100 -1,700 Descending Atlanta Center
Thu 01:56:31 PM 35.4564 -81.1269 238° Southwest 424 488 14,300 -1,500 Descending Atlanta Center
Thu 01:57:31 PM 35.3964 -81.2389 237° Southwest 411 473 13,100 -1,105 Descending Atlanta Center
Thu 01:58:25 PM 35.3483 -81.3319 238° Southwest 371 427 12,200 -1,000 Descending Atlanta Center
Thu 01:58:31 PM 35.3425 -81.3450 241° Southwest 391 450 12,100 -1,091 Descending Atlanta Center
Thu 01:59:31 PM 35.2883 -81.4486 237° Southwest 378 435 11,000 -1,050 Descending Atlanta Center
Thu 02:00:31 PM 35.2319 -81.5519 236° Southwest 378 435 10,000 -500 Descending Atlanta Center
Thu 02:01:31 PM 35.1817 -81.6500 238° Southwest 363 418 10,000 -200 Level Atlanta Center
Thu 02:02:31 PM 35.1414 -81.7275 238° Southwest 331 381 9,600 -500 Descending Atlanta Center
Thu 02:03:31 PM 35.0950 -81.8125 236° Southwest 312 359 9,000 -350 Descending Atlanta Center
Thu 02:04:31 PM 35.0486 -81.9025 238° Southwest 312 359 8,900  Descending Atlanta Center
Thu 02:05:31 PM 35.0042 -81.9847 237° Southwest 306 352 9,000 -750 Climbing Atlanta Center
Thu 02:06:31 PM 34.9322 -82.0422 213° Southwest 301 346 7,400 -1,750 Descending Atlanta Center
Thu 02:07:31 PM 34.8578 -82.0972 211° Southwest 301 346 5,500 -1,700 Descending Atlanta Center
Thu 02:08:31 PM 34.7939 -82.1467 212° Southwest 291 335 4,000 -750 Descending Atlanta Center
Thu 02:09:31 PM 34.7300 -82.1989 214° Southwest 286 329 4,000  Level Atlanta Center
Thu 02:10:31 PM 34.6661 -82.2508 214° Southwest 281 323 4,000  Level Atlanta Center
Thu 02:11:31 PM 34.6022 -82.3025 214° Southwest 281 323 4,000  Level Atlanta Center
Thu 02:12:31 PM 34.6075 -82.3781 275° West 222 255 4,000 -500 Level Atlanta Center
Thu 02:13:31 PM 34.6803 -82.3667 North 136 157 3,000 -550 Descending Atlanta Center
Thu 02:14:31 PM 34.7425 -82.3375 21° North 189 217 2,900 -50 Descending Atlanta Center
Thu 02:15:31 PM 34.7900 -82.3011 32° Northeast 189 217 2,900 -350 Level Atlanta Center
Thu 02:16:31 PM 34.8272 -82.2750 30° Northeast 184 212 2,200 -700 Descending Atlanta Center

Login

Don't have an account? Register now (free) for customized features, flight alerts, and more!